sensor_id;sensor_type;location;lat;lon;timestamp;P1;durP1;ratioP1;P2;durP2;ratioP2
53269;SDS011;39159;45.634;9.420;2023-07-20T00:02:19;12.38;;;5.38;;
53269;SDS011;39159;45.634;9.420;2023-07-20T00:04:45;10.95;;;5.43;;
53269;SDS011;39159;45.634;9.420;2023-07-20T00:07:10;11.48;;;5.65;;
53269;SDS011;39159;45.634;9.420;2023-07-20T00:09:36;9.20;;;5.45;;
53269;SDS011;39159;45.634;9.420;2023-07-20T00:12:01;13.02;;;5.93;;
53269;SDS011;39159;45.634;9.420;2023-07-20T00:14:27;14.85;;;5.97;;
53269;SDS011;39159;45.634;9.420;2023-07-20T00:16:52;17.13;;;6.07;;
53269;SDS011;39159;45.634;9.420;2023-07-20T00:19:26;13.20;;;6.15;;
53269;SDS011;39159;45.634;9.420;2023-07-20T00:21:52;12.45;;;6.00;;
53269;SDS011;39159;45.634;9.420;2023-07-20T00:24:18;11.90;;;5.57;;
53269;SDS011;39159;45.634;9.420;2023-07-20T00:26:44;15.75;;;6.30;;
53269;SDS011;39159;45.634;9.420;2023-07-20T00:29:10;8.05;;;5.30;;
53269;SDS011;39159;45.634;9.420;2023-07-20T00:31:35;14.95;;;5.45;;
53269;SDS011;39159;45.634;9.420;2023-07-20T00:34:02;9.63;;;5.82;;
53269;SDS011;39159;45.634;9.420;2023-07-20T00:36:28;10.48;;;5.88;;
53269;SDS011;39159;45.634;9.420;2023-07-20T00:38:54;12.50;;;6.05;;
53269;SDS011;39159;45.634;9.420;2023-07-20T00:41:19;12.05;;;5.45;;
53269;SDS011;39159;45.634;9.420;2023-07-20T00:43:45;14.27;;;6.68;;
53269;SDS011;39159;45.634;9.420;2023-07-20T00:46:10;10.23;;;5.60;;
53269;SDS011;39159;45.634;9.420;2023-07-20T00:48:36;11.75;;;5.30;;
53269;SDS011;39159;45.634;9.420;2023-07-20T00:51:02;8.52;;;5.90;;
53269;SDS011;39159;45.634;9.420;2023-07-20T00:53:28;8.85;;;5.65;;
53269;SDS011;39159;45.634;9.420;2023-07-20T00:55:54;12.10;;;5.93;;
53269;SDS011;39159;45.634;9.420;2023-07-20T00:58:20;11.70;;;5.82;;
53269;SDS011;39159;45.634;9.420;2023-07-20T01:00:46;15.70;;;5.90;;
53269;SDS011;39159;45.634;9.420;2023-07-20T01:03:12;10.43;;;5.75;;
53269;SDS011;39159;45.634;9.420;2023-07-20T01:05:54;9.32;;;6.15;;
53269;SDS011;39159;45.634;9.420;2023-07-20T01:08:47;14.05;;;6.57;;
53269;SDS011;39159;45.634;9.420;2023-07-20T01:11:33;12.02;;;6.47;;
53269;SDS011;39159;45.634;9.420;2023-07-20T01:14:03;11.57;;;6.60;;
53269;SDS011;39159;45.634;9.420;2023-07-20T01:16:30;11.88;;;6.65;;
53269;SDS011;39159;45.634;9.420;2023-07-20T01:18:55;10.75;;;6.40;;
53269;SDS011;39159;45.634;9.420;2023-07-20T01:21:22;10.60;;;6.68;;
53269;SDS011;39159;45.634;9.420;2023-07-20T01:24:17;12.45;;;7.90;;
53269;SDS011;39159;45.634;9.420;2023-07-20T01:32:11;17.63;;;6.63;;
53269;SDS011;39159;45.634;9.420;2023-07-20T01:34:39;12.80;;;7.28;;
53269;SDS011;39159;45.634;9.420;2023-07-20T01:37:06;10.57;;;7.13;;
53269;SDS011;39159;45.634;9.420;2023-07-20T01:39:32;15.20;;;8.40;;
53269;SDS011;39159;45.634;9.420;2023-07-20T01:41:58;14.18;;;7.90;;
53269;SDS011;39159;45.634;9.420;2023-07-20T01:44:23;13.60;;;7.50;;
53269;SDS011;39159;45.634;9.420;2023-07-20T01:46:49;16.38;;;7.90;;
53269;SDS011;39159;45.634;9.420;2023-07-20T01:49:14;15.10;;;8.32;;
53269;SDS011;39159;45.634;9.420;2023-07-20T01:51:40;15.43;;;8.48;;
53269;SDS011;39159;45.634;9.420;2023-07-20T01:54:06;17.05;;;7.82;;
53269;SDS011;39159;45.634;9.420;2023-07-20T01:56:31;14.70;;;8.20;;
53269;SDS011;39159;45.634;9.420;2023-07-20T01:58:57;17.23;;;8.10;;
53269;SDS011;39159;45.634;9.420;2023-07-20T02:01:22;11.40;;;7.15;;
53269;SDS011;39159;45.634;9.420;2023-07-20T02:03:47;12.82;;;8.35;;
53269;SDS011;39159;45.634;9.420;2023-07-20T02:06:13;15.77;;;8.68;;
53269;SDS011;39159;45.634;9.420;2023-07-20T02:08:39;16.83;;;8.20;;
53269;SDS011;39159;45.634;9.420;2023-07-20T02:11:04;18.58;;;8.20;;
53269;SDS011;39159;45.634;9.420;2023-07-20T02:13:30;15.98;;;8.20;;
53269;SDS011;39159;45.634;9.420;2023-07-20T02:15:55;16.08;;;8.25;;
53269;SDS011;39159;45.634;9.420;2023-07-20T02:18:21;14.85;;;8.18;;
53269;SDS011;39159;45.634;9.420;2023-07-20T02:20:46;15.15;;;8.02;;
53269;SDS011;39159;45.634;9.420;2023-07-20T02:23:12;12.00;;;7.00;;
53269;SDS011;39159;45.634;9.420;2023-07-20T02:25:37;17.52;;;8.45;;
53269;SDS011;39159;45.634;9.420;2023-07-20T02:28:03;11.75;;;7.20;;
53269;SDS011;39159;45.634;9.420;2023-07-20T02:30:29;11.30;;;7.47;;
53269;SDS011;39159;45.634;9.420;2023-07-20T02:32:54;14.95;;;7.93;;
53269;SDS011;39159;45.634;9.420;2023-07-20T02:35:23;18.08;;;8.15;;
53269;SDS011;39159;45.634;9.420;2023-07-20T02:37:49;13.88;;;7.88;;
53269;SDS011;39159;45.634;9.420;2023-07-20T02:40:14;14.32;;;7.82;;
53269;SDS011;39159;45.634;9.420;2023-07-20T02:42:40;13.65;;;8.05;;
53269;SDS011;39159;45.634;9.420;2023-07-20T02:45:06;14.93;;;7.85;;
53269;SDS011;39159;45.634;9.420;2023-07-20T02:47:32;10.25;;;6.97;;
53269;SDS011;39159;45.634;9.420;2023-07-20T02:49:58;12.75;;;6.85;;
53269;SDS011;39159;45.634;9.420;2023-07-20T02:52:23;14.48;;;8.02;;
53269;SDS011;39159;45.634;9.420;2023-07-20T02:54:49;14.77;;;8.18;;
53269;SDS011;39159;45.634;9.420;2023-07-20T02:57:15;10.95;;;7.15;;
53269;SDS011;39159;45.634;9.420;2023-07-20T02:59:41;11.32;;;7.20;;
53269;SDS011;39159;45.634;9.420;2023-07-20T03:02:06;16.42;;;8.30;;
53269;SDS011;39159;45.634;9.420;2023-07-20T03:04:34;16.10;;;8.75;;
53269;SDS011;39159;45.634;9.420;2023-07-20T03:07:02;10.43;;;7.60;;
53269;SDS011;39159;45.634;9.420;2023-07-20T03:09:28;11.55;;;7.45;;
53269;SDS011;39159;45.634;9.420;2023-07-20T03:11:54;16.13;;;8.50;;
53269;SDS011;39159;45.634;9.420;2023-07-20T03:14:19;15.45;;;7.90;;
53269;SDS011;39159;45.634;9.420;2023-07-20T03:16:45;12.80;;;8.10;;
53269;SDS011;39159;45.634;9.420;2023-07-20T03:19:10;13.43;;;8.02;;
53269;SDS011;39159;45.634;9.420;2023-07-20T03:21:36;18.30;;;9.45;;
53269;SDS011;39159;45.634;9.420;2023-07-20T03:24:06;16.42;;;9.90;;
53269;SDS011;39159;45.634;9.420;2023-07-20T03:26:34;13.43;;;8.80;;
53269;SDS011;39159;45.634;9.420;2023-07-20T03:29:01;15.32;;;8.93;;
53269;SDS011;39159;45.634;9.420;2023-07-20T03:31:27;17.15;;;8.48;;
53269;SDS011;39159;45.634;9.420;2023-07-20T03:33:52;13.77;;;8.77;;
53269;SDS011;39159;45.634;9.420;2023-07-20T03:36:17;13.50;;;8.50;;
53269;SDS011;39159;45.634;9.420;2023-07-20T03:38:43;15.48;;;9.35;;
53269;SDS011;39159;45.634;9.420;2023-07-20T03:41:08;17.83;;;9.57;;
53269;SDS011;39159;45.634;9.420;2023-07-20T03:43:34;16.88;;;10.07;;
53269;SDS011;39159;45.634;9.420;2023-07-20T03:45:59;16.45;;;9.70;;
53269;SDS011;39159;45.634;9.420;2023-07-20T03:48:25;16.67;;;9.13;;
53269;SDS011;39159;45.634;9.420;2023-07-20T03:50:51;15.85;;;10.68;;
53269;SDS011;39159;45.634;9.420;2023-07-20T03:53:18;14.63;;;10.77;;
53269;SDS011;39159;45.634;9.420;2023-07-20T03:55:48;15.32;;;10.07;;
53269;SDS011;39159;45.634;9.420;2023-07-20T03:58:14;19.80;;;13.10;;
53269;SDS011;39159;45.634;9.420;2023-07-20T04:00:40;17.58;;;11.93;;
53269;SDS011;39159;45.634;9.420;2023-07-20T04:03:12;22.90;;;12.43;;
53269;SDS011;39159;45.634;9.420;2023-07-20T04:05:38;20.42;;;13.05;;
53269;SDS011;39159;45.634;9.420;2023-07-20T04:08:04;20.25;;;13.57;;
53269;SDS011;39159;45.634;9.420;2023-07-20T04:10:29;20.77;;;13.30;;
53269;SDS011;39159;45.634;9.420;2023-07-20T04:12:55;15.85;;;12.43;;
53269;SDS011;39159;45.634;9.420;2023-07-20T04:15:21;22.95;;;14.27;;
53269;SDS011;39159;45.634;9.420;2023-07-20T04:17:46;21.02;;;13.18;;
53269;SDS011;39159;45.634;9.420;2023-07-20T04:20:12;24.00;;;14.70;;
53269;SDS011;39159;45.634;9.420;2023-07-20T04:22:37;19.42;;;13.13;;
53269;SDS011;39159;45.634;9.420;2023-07-20T04:25:03;20.30;;;13.32;;
53269;SDS011;39159;45.634;9.420;2023-07-20T04:27:29;19.10;;;13.85;;
53269;SDS011;39159;45.634;9.420;2023-07-20T04:29:54;19.33;;;13.13;;
53269;SDS011;39159;45.634;9.420;2023-07-20T04:32:20;20.17;;;14.43;;
53269;SDS011;39159;45.634;9.420;2023-07-20T04:34:46;20.50;;;14.55;;
53269;SDS011;39159;45.634;9.420;2023-07-20T04:37:11;22.92;;;13.98;;
53269;SDS011;39159;45.634;9.420;2023-07-20T04:39:37;21.80;;;14.13;;
53269;SDS011;39159;45.634;9.420;2023-07-20T04:42:02;18.50;;;13.32;;
53269;SDS011;39159;45.634;9.420;2023-07-20T04:44:28;32.25;;;14.00;;
53269;SDS011;39159;45.634;9.420;2023-07-20T04:46:53;20.40;;;13.15;;
53269;SDS011;39159;45.634;9.420;2023-07-20T04:49:19;18.45;;;11.93;;
53269;SDS011;39159;45.634;9.420;2023-07-20T04:51:45;19.67;;;12.77;;
53269;SDS011;39159;45.634;9.420;2023-07-20T04:54:10;18.70;;;13.13;;
53269;SDS011;39159;45.634;9.420;2023-07-20T04:56:36;21.92;;;14.25;;
53269;SDS011;39159;45.634;9.420;2023-07-20T04:59:01;23.52;;;13.77;;
53269;SDS011;39159;45.634;9.420;2023-07-20T05:01:27;18.45;;;12.88;;
53269;SDS011;39159;45.634;9.420;2023-07-20T05:03:53;19.88;;;13.82;;
53269;SDS011;39159;45.634;9.420;2023-07-20T05:06:18;18.23;;;11.90;;
53269;SDS011;39159;45.634;9.420;2023-07-20T05:08:44;25.70;;;13.88;;
53269;SDS011;39159;45.634;9.420;2023-07-20T05:11:10;20.88;;;13.48;;
53269;SDS011;39159;45.634;9.420;2023-07-20T05:13:36;18.73;;;13.00;;
53269;SDS011;39159;45.634;9.420;2023-07-20T05:16:01;21.02;;;13.70;;
53269;SDS011;39159;45.634;9.420;2023-07-20T05:18:27;23.30;;;14.07;;
53269;SDS011;39159;45.634;9.420;2023-07-20T05:20:52;26.48;;;14.18;;
53269;SDS011;39159;45.634;9.420;2023-07-20T05:23:20;23.02;;;13.80;;
53269;SDS011;39159;45.634;9.420;2023-07-20T05:25:46;22.77;;;15.02;;
53269;SDS011;39159;45.634;9.420;2023-07-20T05:28:11;20.35;;;13.45;;
53269;SDS011;39159;45.634;9.420;2023-07-20T05:30:37;17.10;;;11.70;;
53269;SDS011;39159;45.634;9.420;2023-07-20T05:33:02;16.15;;;11.68;;
53269;SDS011;39159;45.634;9.420;2023-07-20T05:35:28;18.70;;;12.75;;
53269;SDS011;39159;45.634;9.420;2023-07-20T05:37:54;18.30;;;11.75;;
53269;SDS011;39159;45.634;9.420;2023-07-20T05:40:19;19.63;;;10.48;;
53269;SDS011;39159;45.634;9.420;2023-07-20T05:42:46;17.42;;;11.00;;
53269;SDS011;39159;45.634;9.420;2023-07-20T05:45:13;17.08;;;11.70;;
53269;SDS011;39159;45.634;9.420;2023-07-20T05:47:39;15.77;;;11.30;;
53269;SDS011;39159;45.634;9.420;2023-07-20T05:50:06;17.10;;;11.20;;
53269;SDS011;39159;45.634;9.420;2023-07-20T05:52:32;18.60;;;11.82;;
53269;SDS011;39159;45.634;9.420;2023-07-20T05:54:57;13.07;;;9.30;;
53269;SDS011;39159;45.634;9.420;2023-07-20T05:57:23;17.83;;;11.55;;
53269;SDS011;39159;45.634;9.420;2023-07-20T05:59:49;21.13;;;13.18;;
53269;SDS011;39159;45.634;9.420;2023-07-20T06:02:14;16.45;;;10.57;;
53269;SDS011;39159;45.634;9.420;2023-07-20T06:04:40;21.98;;;12.63;;
53269;SDS011;39159;45.634;9.420;2023-07-20T06:07:05;24.10;;;13.93;;
53269;SDS011;39159;45.634;9.420;2023-07-20T06:09:32;21.02;;;13.77;;
53269;SDS011;39159;45.634;9.420;2023-07-20T06:11:58;16.77;;;11.52;;
53269;SDS011;39159;45.634;9.420;2023-07-20T06:14:24;19.33;;;12.05;;
53269;SDS011;39159;45.634;9.420;2023-07-20T06:16:49;23.15;;;13.23;;
53269;SDS011;39159;45.634;9.420;2023-07-20T06:19:15;16.60;;;10.98;;
53269;SDS011;39159;45.634;9.420;2023-07-20T06:21:41;17.25;;;11.82;;
53269;SDS011;39159;45.634;9.420;2023-07-20T06:24:07;23.27;;;13.98;;
53269;SDS011;39159;45.634;9.420;2023-07-20T06:26:32;20.13;;;12.20;;
53269;SDS011;39159;45.634;9.420;2023-07-20T06:29:03;17.43;;;11.03;;
53269;SDS011;39159;45.634;9.420;2023-07-20T06:31:30;17.73;;;12.60;;
53269;SDS011;39159;45.634;9.420;2023-07-20T06:33:55;19.27;;;12.70;;
53269;SDS011;39159;45.634;9.420;2023-07-20T06:36:21;16.98;;;12.27;;
53269;SDS011;39159;45.634;9.420;2023-07-20T06:38:46;18.25;;;11.55;;
53269;SDS011;39159;45.634;9.420;2023-07-20T06:41:12;18.15;;;13.13;;
53269;SDS011;39159;45.634;9.420;2023-07-20T06:43:37;18.20;;;11.15;;
53269;SDS011;39159;45.634;9.420;2023-07-20T06:46:03;11.27;;;8.82;;
53269;SDS011;39159;45.634;9.420;2023-07-20T06:48:28;15.65;;;10.90;;
53269;SDS011;39159;45.634;9.420;2023-07-20T06:50:54;18.13;;;9.40;;
53269;SDS011;39159;45.634;9.420;2023-07-20T06:53:20;14.38;;;9.93;;
53269;SDS011;39159;45.634;9.420;2023-07-20T06:55:45;14.15;;;10.02;;
53269;SDS011;39159;45.634;9.420;2023-07-20T06:58:11;18.30;;;11.45;;
53269;SDS011;39159;45.634;9.420;2023-07-20T07:00:37;20.30;;;9.40;;
53269;SDS011;39159;45.634;9.420;2023-07-20T07:03:02;19.90;;;13.02;;
53269;SDS011;39159;45.634;9.420;2023-07-20T07:05:28;24.15;;;10.30;;
53269;SDS011;39159;45.634;9.420;2023-07-20T07:07:53;14.68;;;9.23;;
53269;SDS011;39159;45.634;9.420;2023-07-20T07:10:19;16.90;;;9.27;;
53269;SDS011;39159;45.634;9.420;2023-07-20T07:12:44;15.27;;;8.82;;
53269;SDS011;39159;45.634;9.420;2023-07-20T07:15:10;13.35;;;8.77;;
53269;SDS011;39159;45.634;9.420;2023-07-20T07:17:38;16.48;;;11.02;;
53269;SDS011;39159;45.634;9.420;2023-07-20T07:20:04;20.15;;;11.63;;
53269;SDS011;39159;45.634;9.420;2023-07-20T07:22:30;13.25;;;8.48;;
53269;SDS011;39159;45.634;9.420;2023-07-20T07:24:56;15.90;;;8.40;;
53269;SDS011;39159;45.634;9.420;2023-07-20T07:27:21;15.77;;;8.77;;
53269;SDS011;39159;45.634;9.420;2023-07-20T07:29:47;16.98;;;9.07;;
53269;SDS011;39159;45.634;9.420;2023-07-20T07:32:14;16.33;;;10.18;;
53269;SDS011;39159;45.634;9.420;2023-07-20T07:34:40;11.98;;;8.23;;
53269;SDS011;39159;45.634;9.420;2023-07-20T07:37:05;19.55;;;9.82;;
53269;SDS011;39159;45.634;9.420;2023-07-20T07:39:31;17.77;;;10.82;;
53269;SDS011;39159;45.634;9.420;2023-07-20T07:41:57;24.25;;;10.20;;
53269;SDS011;39159;45.634;9.420;2023-07-20T07:44:22;14.65;;;9.55;;
53269;SDS011;39159;45.634;9.420;2023-07-20T07:46:48;17.13;;;9.00;;
53269;SDS011;39159;45.634;9.420;2023-07-20T07:49:14;15.18;;;9.52;;
53269;SDS011;39159;45.634;9.420;2023-07-20T07:51:40;16.05;;;9.60;;
53269;SDS011;39159;45.634;9.420;2023-07-20T07:54:05;15.18;;;8.38;;
53269;SDS011;39159;45.634;9.420;2023-07-20T07:56:31;15.82;;;9.55;;
53269;SDS011;39159;45.634;9.420;2023-07-20T07:58:56;12.75;;;8.45;;
53269;SDS011;39159;45.634;9.420;2023-07-20T08:01:22;10.50;;;8.15;;
53269;SDS011;39159;45.634;9.420;2023-07-20T08:03:47;10.40;;;7.95;;
53269;SDS011;39159;45.634;9.420;2023-07-20T08:06:13;19.50;;;10.40;;
53269;SDS011;39159;45.634;9.420;2023-07-20T08:08:39;18.50;;;9.10;;
53269;SDS011;39159;45.634;9.420;2023-07-20T08:11:05;14.90;;;8.43;;
53269;SDS011;39159;45.634;9.420;2023-07-20T08:13:30;14.88;;;7.43;;
53269;SDS011;39159;45.634;9.420;2023-07-20T08:15:57;15.98;;;7.95;;
53269;SDS011;39159;45.634;9.420;2023-07-20T08:18:22;15.15;;;8.05;;
53269;SDS011;39159;45.634;9.420;2023-07-20T08:20:48;11.07;;;7.53;;
53269;SDS011;39159;45.634;9.420;2023-07-20T08:23:14;14.93;;;9.60;;
53269;SDS011;39159;45.634;9.420;2023-07-20T08:25:41;16.05;;;8.32;;
53269;SDS011;39159;45.634;9.420;2023-07-20T08:28:15;14.50;;;8.25;;
53269;SDS011;39159;45.634;9.420;2023-07-20T08:33:13;13.20;;;7.90;;
53269;SDS011;39159;45.634;9.420;2023-07-20T08:35:39;17.92;;;8.73;;
53269;SDS011;39159;45.634;9.420;2023-07-20T08:38:05;15.88;;;7.90;;
53269;SDS011;39159;45.634;9.420;2023-07-20T08:40:38;16.60;;;8.85;;
53269;SDS011;39159;45.634;9.420;2023-07-20T08:43:10;13.50;;;7.95;;
53269;SDS011;39159;45.634;9.420;2023-07-20T08:45:36;14.18;;;7.85;;
53269;SDS011;39159;45.634;9.420;2023-07-20T08:48:05;15.10;;;7.07;;
53269;SDS011;39159;45.634;9.420;2023-07-20T08:50:31;12.13;;;7.07;;
53269;SDS011;39159;45.634;9.420;2023-07-20T08:52:58;15.40;;;7.68;;
53269;SDS011;39159;45.634;9.420;2023-07-20T08:55:27;21.75;;;8.63;;
53269;SDS011;39159;45.634;9.420;2023-07-20T08:57:54;13.10;;;7.60;;
53269;SDS011;39159;45.634;9.420;2023-07-20T09:00:20;10.23;;;6.80;;
53269;SDS011;39159;45.634;9.420;2023-07-20T09:02:48;16.52;;;8.35;;
53269;SDS011;39159;45.634;9.420;2023-07-20T09:05:22;14.20;;;9.30;;
53269;SDS011;39159;45.634;9.420;2023-07-20T09:07:49;14.27;;;8.60;;
53269;SDS011;39159;45.634;9.420;2023-07-20T09:10:14;14.15;;;6.95;;
53269;SDS011;39159;45.634;9.420;2023-07-20T09:12:43;11.60;;;6.65;;
53269;SDS011;39159;45.634;9.420;2023-07-20T09:15:09;16.30;;;6.78;;
53269;SDS011;39159;45.634;9.420;2023-07-20T09:17:35;10.60;;;6.75;;
53269;SDS011;39159;45.634;9.420;2023-07-20T09:20:03;10.68;;;5.55;;
53269;SDS011;39159;45.634;9.420;2023-07-20T09:22:33;9.18;;;5.95;;
53269;SDS011;39159;45.634;9.420;2023-07-20T09:24:59;11.88;;;6.28;;
53269;SDS011;39159;45.634;9.420;2023-07-20T09:30:27;11.93;;;6.38;;
53269;SDS011;39159;45.634;9.420;2023-07-20T09:32:53;7.88;;;4.88;;
53269;SDS011;39159;45.634;9.420;2023-07-20T09:35:21;11.32;;;5.75;;
53269;SDS011;39159;45.634;9.420;2023-07-20T09:37:55;8.50;;;4.80;;
53269;SDS011;39159;45.634;9.420;2023-07-20T09:40:24;8.93;;;5.13;;
53269;SDS011;39159;45.634;9.420;2023-07-20T09:42:50;8.85;;;5.00;;
53269;SDS011;39159;45.634;9.420;2023-07-20T09:45:17;12.90;;;5.20;;
53269;SDS011;39159;45.634;9.420;2023-07-20T09:47:43;14.90;;;5.40;;
53269;SDS011;39159;45.634;9.420;2023-07-20T09:50:08;9.80;;;4.93;;
53269;SDS011;39159;45.634;9.420;2023-07-20T09:52:38;11.55;;;6.13;;
53269;SDS011;39159;45.634;9.420;2023-07-20T09:55:05;8.75;;;5.47;;
53269;SDS011;39159;45.634;9.420;2023-07-20T09:57:32;5.72;;;4.20;;
53269;SDS011;39159;45.634;9.420;2023-07-20T09:59:59;10.63;;;5.00;;
53269;SDS011;39159;45.634;9.420;2023-07-20T10:02:25;9.95;;;4.47;;
53269;SDS011;39159;45.634;9.420;2023-07-20T10:04:58;9.82;;;4.70;;
53269;SDS011;39159;45.634;9.420;2023-07-20T10:07:27;9.30;;;5.57;;
53269;SDS011;39159;45.634;9.420;2023-07-20T10:09:55;11.65;;;5.15;;
53269;SDS011;39159;45.634;9.420;2023-07-20T10:12:25;11.82;;;4.88;;
53269;SDS011;39159;45.634;9.420;2023-07-20T10:15:40;11.35;;;6.43;;
53269;SDS011;39159;45.634;9.420;2023-07-20T10:20:53;8.50;;;4.63;;
53269;SDS011;39159;45.634;9.420;2023-07-20T10:23:19;7.68;;;4.53;;
53269;SDS011;39159;45.634;9.420;2023-07-20T10:25:46;9.10;;;4.60;;
53269;SDS011;39159;45.634;9.420;2023-07-20T10:28:12;11.32;;;4.70;;
53269;SDS011;39159;45.634;9.420;2023-07-20T10:30:38;7.25;;;4.45;;
53269;SDS011;39159;45.634;9.420;2023-07-20T10:33:05;11.50;;;5.22;;
53269;SDS011;39159;45.634;9.420;2023-07-20T10:35:31;8.65;;;5.28;;
53269;SDS011;39159;45.634;9.420;2023-07-20T10:38:16;10.63;;;5.28;;
53269;SDS011;39159;45.634;9.420;2023-07-20T10:40:41;9.77;;;5.07;;
53269;SDS011;39159;45.634;9.420;2023-07-20T10:43:07;11.27;;;5.22;;
53269;SDS011;39159;45.634;9.420;2023-07-20T10:45:41;8.48;;;4.47;;
53269;SDS011;39159;45.634;9.420;2023-07-20T10:48:23;17.40;;;7.25;;
53269;SDS011;39159;45.634;9.420;2023-07-20T10:53:38;10.65;;;5.20;;
53269;SDS011;39159;45.634;9.420;2023-07-20T10:56:08;7.53;;;4.80;;
53269;SDS011;39159;45.634;9.420;2023-07-20T10:58:38;15.13;;;6.60;;
53269;SDS011;39159;45.634;9.420;2023-07-20T11:01:04;16.73;;;5.38;;
53269;SDS011;39159;45.634;9.420;2023-07-20T11:03:32;11.30;;;5.05;;
53269;SDS011;39159;45.634;9.420;2023-07-20T11:05:59;11.15;;;5.13;;
53269;SDS011;39159;45.634;9.420;2023-07-20T11:08:37;9.27;;;5.07;;
53269;SDS011;39159;45.634;9.420;2023-07-20T11:11:25;8.93;;;5.55;;
53269;SDS011;39159;45.634;9.420;2023-07-20T11:19:02;10.23;;;5.32;;
53269;SDS011;39159;45.634;9.420;2023-07-20T11:21:29;9.77;;;5.40;;
53269;SDS011;39159;45.634;9.420;2023-07-20T11:24:02;11.88;;;5.40;;
53269;SDS011;39159;45.634;9.420;2023-07-20T11:26:28;9.85;;;4.63;;
53269;SDS011;39159;45.634;9.420;2023-07-20T11:28:54;12.18;;;5.18;;
53269;SDS011;39159;45.634;9.420;2023-07-20T11:31:19;10.27;;;6.15;;
53269;SDS011;39159;45.634;9.420;2023-07-20T11:33:45;10.90;;;5.72;;
53269;SDS011;39159;45.634;9.420;2023-07-20T11:36:11;8.43;;;5.63;;
53269;SDS011;39159;45.634;9.420;2023-07-20T11:38:36;14.48;;;5.90;;
53269;SDS011;39159;45.634;9.420;2023-07-20T11:41:03;8.73;;;4.82;;
53269;SDS011;39159;45.634;9.420;2023-07-20T11:43:28;8.30;;;4.85;;
53269;SDS011;39159;45.634;9.420;2023-07-20T11:45:55;12.23;;;6.53;;
53269;SDS011;39159;45.634;9.420;2023-07-20T11:48:20;12.43;;;6.60;;
53269;SDS011;39159;45.634;9.420;2023-07-20T11:50:46;16.85;;;6.47;;
53269;SDS011;39159;45.634;9.420;2023-07-20T11:53:11;15.85;;;7.18;;
53269;SDS011;39159;45.634;9.420;2023-07-20T11:55:38;13.07;;;7.03;;
53269;SDS011;39159;45.634;9.420;2023-07-20T11:58:05;16.67;;;8.10;;
53269;SDS011;39159;45.634;9.420;2023-07-20T12:00:32;12.00;;;7.30;;
53269;SDS011;39159;45.634;9.420;2023-07-20T12:02:59;26.02;;;8.10;;
53269;SDS011;39159;45.634;9.420;2023-07-20T12:05:25;12.05;;;8.00;;
53269;SDS011;39159;45.634;9.420;2023-07-20T12:07:51;16.95;;;8.55;;
53269;SDS011;39159;45.634;9.420;2023-07-20T12:10:23;11.25;;;7.63;;
53269;SDS011;39159;45.634;9.420;2023-07-20T12:12:50;13.32;;;8.10;;
53269;SDS011;39159;45.634;9.420;2023-07-20T12:15:16;15.88;;;8.27;;
53269;SDS011;39159;45.634;9.420;2023-07-20T12:17:49;13.50;;;8.27;;
53269;SDS011;39159;45.634;9.420;2023-07-20T12:20:34;13.52;;;7.93;;
53269;SDS011;39159;45.634;9.420;2023-07-20T12:23:02;12.48;;;7.35;;
53269;SDS011;39159;45.634;9.420;2023-07-20T12:28:04;10.85;;;7.43;;
53269;SDS011;39159;45.634;9.420;2023-07-20T12:30:33;14.80;;;7.97;;
53269;SDS011;39159;45.634;9.420;2023-07-20T12:32:59;15.20;;;7.28;;
53269;SDS011;39159;45.634;9.420;2023-07-20T12:35:24;16.10;;;7.88;;
53269;SDS011;39159;45.634;9.420;2023-07-20T12:37:50;14.60;;;7.93;;
53269;SDS011;39159;45.634;9.420;2023-07-20T12:40:16;12.60;;;7.30;;
53269;SDS011;39159;45.634;9.420;2023-07-20T12:42:42;17.50;;;8.88;;
53269;SDS011;39159;45.634;9.420;2023-07-20T12:45:08;13.95;;;7.50;;
53269;SDS011;39159;45.634;9.420;2023-07-20T12:47:33;16.23;;;7.80;;
53269;SDS011;39159;45.634;9.420;2023-07-20T12:49:59;15.27;;;8.00;;
53269;SDS011;39159;45.634;9.420;2023-07-20T12:52:25;14.15;;;7.50;;
53269;SDS011;39159;45.634;9.420;2023-07-20T12:54:50;15.13;;;7.55;;
53269;SDS011;39159;45.634;9.420;2023-07-20T12:57:16;13.90;;;7.60;;
53269;SDS011;39159;45.634;9.420;2023-07-20T12:59:42;22.33;;;8.65;;
53269;SDS011;39159;45.634;9.420;2023-07-20T13:02:07;12.15;;;6.72;;
53269;SDS011;39159;45.634;9.420;2023-07-20T13:04:33;10.25;;;7.43;;
53269;SDS011;39159;45.634;9.420;2023-07-20T13:06:58;15.15;;;7.18;;
53269;SDS011;39159;45.634;9.420;2023-07-20T13:09:24;16.95;;;8.48;;
53269;SDS011;39159;45.634;9.420;2023-07-20T13:11:50;14.90;;;7.80;;
53269;SDS011;39159;45.634;9.420;2023-07-20T13:14:16;14.05;;;6.93;;
53269;SDS011;39159;45.634;9.420;2023-07-20T13:16:42;14.27;;;6.60;;
53269;SDS011;39159;45.634;9.420;2023-07-20T13:19:07;15.48;;;7.35;;
53269;SDS011;39159;45.634;9.420;2023-07-20T13:21:33;12.93;;;6.85;;
53269;SDS011;39159;45.634;9.420;2023-07-20T13:23:58;14.40;;;7.45;;
53269;SDS011;39159;45.634;9.420;2023-07-20T13:26:24;12.25;;;6.85;;
53269;SDS011;39159;45.634;9.420;2023-07-20T13:28:49;13.68;;;7.53;;
53269;SDS011;39159;45.634;9.420;2023-07-20T13:31:15;15.80;;;7.38;;
53269;SDS011;39159;45.634;9.420;2023-07-20T13:33:42;14.00;;;5.95;;
53269;SDS011;39159;45.634;9.420;2023-07-20T13:36:08;19.42;;;7.55;;
53269;SDS011;39159;45.634;9.420;2023-07-20T13:38:33;17.85;;;8.15;;
53269;SDS011;39159;45.634;9.420;2023-07-20T13:40:58;11.63;;;6.53;;
53269;SDS011;39159;45.634;9.420;2023-07-20T13:43:24;10.23;;;6.78;;
53269;SDS011;39159;45.634;9.420;2023-07-20T13:45:50;11.48;;;6.35;;
53269;SDS011;39159;45.634;9.420;2023-07-20T13:48:15;12.00;;;7.63;;
53269;SDS011;39159;45.634;9.420;2023-07-20T13:50:44;13.02;;;7.47;;
53269;SDS011;39159;45.634;9.420;2023-07-20T13:53:11;12.77;;;7.00;;
53269;SDS011;39159;45.634;9.420;2023-07-20T13:55:36;12.02;;;6.57;;
53269;SDS011;39159;45.634;9.420;2023-07-20T13:58:03;11.68;;;6.25;;
53269;SDS011;39159;45.634;9.420;2023-07-20T14:00:29;9.80;;;6.15;;
53269;SDS011;39159;45.634;9.420;2023-07-20T14:02:58;14.10;;;6.82;;
53269;SDS011;39159;45.634;9.420;2023-07-20T14:05:24;14.07;;;6.80;;
53269;SDS011;39159;45.634;9.420;2023-07-20T14:07:49;16.33;;;7.05;;
53269;SDS011;39159;45.634;9.420;2023-07-20T14:10:15;7.95;;;5.50;;
53269;SDS011;39159;45.634;9.420;2023-07-20T14:12:40;14.88;;;6.78;;
53269;SDS011;39159;45.634;9.420;2023-07-20T14:15:06;15.77;;;6.70;;
53269;SDS011;39159;45.634;9.420;2023-07-20T14:17:31;10.93;;;6.40;;
53269;SDS011;39159;45.634;9.420;2023-07-20T14:19:57;10.10;;;6.68;;
53269;SDS011;39159;45.634;9.420;2023-07-20T14:22:22;12.27;;;6.28;;
53269;SDS011;39159;45.634;9.420;2023-07-20T14:24:48;11.32;;;5.82;;
53269;SDS011;39159;45.634;9.420;2023-07-20T14:27:14;12.20;;;5.75;;
53269;SDS011;39159;45.634;9.420;2023-07-20T14:29:39;11.75;;;6.18;;
53269;SDS011;39159;45.634;9.420;2023-07-20T14:32:05;10.82;;;5.47;;
53269;SDS011;39159;45.634;9.420;2023-07-20T14:34:32;12.02;;;6.10;;
53269;SDS011;39159;45.634;9.420;2023-07-20T14:36:59;11.10;;;6.25;;
53269;SDS011;39159;45.634;9.420;2023-07-20T14:39:25;11.63;;;5.65;;
53269;SDS011;39159;45.634;9.420;2023-07-20T14:41:50;12.55;;;6.15;;
53269;SDS011;39159;45.634;9.420;2023-07-20T14:44:16;8.25;;;5.28;;
53269;SDS011;39159;45.634;9.420;2023-07-20T14:46:42;12.05;;;5.63;;
53269;SDS011;39159;45.634;9.420;2023-07-20T14:49:07;10.98;;;5.57;;
53269;SDS011;39159;45.634;9.420;2023-07-20T14:51:33;10.82;;;5.68;;
53269;SDS011;39159;45.634;9.420;2023-07-20T14:54:01;12.10;;;5.53;;
53269;SDS011;39159;45.634;9.420;2023-07-20T14:56:26;12.38;;;5.75;;